sensor_id;sensor_type;location;lat;lon;timestamp;pressure;altitude;pressure_sealevel;temperature;humidity
76847;BME280;65813;49.546;8.644;2023-04-23T04:19:10;99989.06;;;11.93;88.45
76847;BME280;65813;49.546;8.644;2023-04-23T04:23:10;100005.50;;;11.77;88.48
76847;BME280;65813;49.546;8.644;2023-04-23T04:27:11;100011.97;;;11.95;88.25
76847;BME280;65813;49.546;8.644;2023-04-23T04:31:12;100011.69;;;11.66;88.74
76847;BME280;65813;49.546;8.644;2023-04-23T04:35:13;100020.59;;;11.88;87.97
76847;BME280;65813;49.546;8.644;2023-04-23T04:39:13;100013.72;;;11.85;88.18
76847;BME280;65813;49.546;8.644;2023-04-23T04:43:14;100007.25;;;11.88;87.53
76847;BME280;65813;49.546;8.644;2023-04-23T04:47:16;100012.00;;;11.84;87.27
76847;BME280;65813;49.546;8.644;2023-04-23T04:51:17;100016.69;;;11.71;87.38
76847;BME280;65813;49.546;8.644;2023-04-23T04:55:17;100017.28;;;11.95;86.77
76847;BME280;65813;49.546;8.644;2023-04-23T04:59:17;100017.03;;;11.78;87.30
76847;BME280;65813;49.546;8.644;2023-04-23T05:03:18;100006.16;;;11.90;87.01
76847;BME280;65813;49.546;8.644;2023-04-23T05:07:18;100014.50;;;11.65;87.62
76847;BME280;65813;49.546;8.644;2023-04-23T05:11:19;100021.50;;;11.77;87.05
76847;BME280;65813;49.546;8.644;2023-04-23T05:15:20;100014.16;;;11.90;86.68
76847;BME280;65813;49.546;8.644;2023-04-23T05:19:20;100030.97;;;11.81;86.98
76847;BME280;65813;49.546;8.644;2023-04-23T05:23:20;100030.22;;;12.00;85.98
76847;BME280;65813;49.546;8.644;2023-04-23T05:27:21;100025.16;;;11.97;85.80
76847;BME280;65813;49.546;8.644;2023-04-23T05:31:21;100014.34;;;11.98;86.26
76847;BME280;65813;49.546;8.644;2023-04-23T05:35:21;100019.97;;;11.95;86.74
76847;BME280;65813;49.546;8.644;2023-04-23T05:39:22;100014.78;;;12.03;86.28
76847;BME280;65813;49.546;8.644;2023-04-23T05:43:22;100017.16;;;11.97;86.55
76847;BME280;65813;49.546;8.644;2023-04-23T05:47:22;100014.03;;;11.92;86.20
76847;BME280;65813;49.546;8.644;2023-04-23T05:51:23;100017.69;;;11.91;86.43
76847;BME280;65813;49.546;8.644;2023-04-23T05:55:23;100015.53;;;12.05;85.83
76847;BME280;65813;49.546;8.644;2023-04-23T05:59:24;100016.56;;;12.14;84.70
76847;BME280;65813;49.546;8.644;2023-04-23T06:03:24;100008.44;;;12.15;84.93
76847;BME280;65813;49.546;8.644;2023-04-23T06:07:25;100012.31;;;12.32;84.88
76847;BME280;65813;49.546;8.644;2023-04-23T06:11:26;99987.97;;;12.26;84.38
76847;BME280;65813;49.546;8.644;2023-04-23T06:15:26;100011.03;;;12.27;84.69
76847;BME280;65813;49.546;8.644;2023-04-23T06:19:26;100029.22;;;12.42;84.50
76847;BME280;65813;49.546;8.644;2023-04-23T06:23:27;100031.03;;;12.42;83.20
76847;BME280;65813;49.546;8.644;2023-04-23T06:27:27;100039.09;;;12.21;84.28
76847;BME280;65813;49.546;8.644;2023-04-23T06:31:28;100024.53;;;12.35;85.10
76847;BME280;65813;49.546;8.644;2023-04-23T06:35:28;100013.66;;;12.47;83.48
76847;BME280;65813;49.546;8.644;2023-04-23T06:39:29;100018.94;;;12.38;85.05
76847;BME280;65813;49.546;8.644;2023-04-23T06:43:29;99999.50;;;12.26;84.34
76847;BME280;65813;49.546;8.644;2023-04-23T06:47:30;100012.00;;;12.26;84.92
76847;BME280;65813;49.546;8.644;2023-04-23T06:51:30;99999.38;;;12.58;80.97
76847;BME280;65813;49.546;8.644;2023-04-23T06:55:31;100005.41;;;12.60;82.62
76847;BME280;65813;49.546;8.644;2023-04-23T06:59:31;100007.28;;;12.39;82.48
76847;BME280;65813;49.546;8.644;2023-04-23T07:03:32;100005.56;;;12.38;83.23
76847;BME280;65813;49.546;8.644;2023-04-23T07:07:32;100014.63;;;12.46;83.50
76847;BME280;65813;49.546;8.644;2023-04-23T07:11:35;100000.66;;;12.73;82.13
76847;BME280;65813;49.546;8.644;2023-04-23T07:15:36;99979.97;;;13.25;80.43
76847;BME280;65813;49.546;8.644;2023-04-23T07:19:37;99981.09;;;13.41;78.77
76847;BME280;65813;49.546;8.644;2023-04-23T07:23:37;99987.03;;;13.35;79.45
76847;BME280;65813;49.546;8.644;2023-04-23T07:27:37;99985.88;;;13.76;77.72
76847;BME280;65813;49.546;8.644;2023-04-23T07:31:38;99985.03;;;13.95;77.83
76847;BME280;65813;49.546;8.644;2023-04-23T07:35:40;99984.13;;;14.23;75.32
76847;BME280;65813;49.546;8.644;2023-04-23T07:39:40;99963.28;;;14.07;74.26
76847;BME280;65813;49.546;8.644;2023-04-23T07:43:41;99979.13;;;14.47;75.06
76847;BME280;65813;49.546;8.644;2023-04-23T07:47:41;99968.28;;;14.39;74.46
76847;BME280;65813;49.546;8.644;2023-04-23T07:51:42;99963.94;;;14.29;76.18
76847;BME280;65813;49.546;8.644;2023-04-23T07:55:42;99975.34;;;14.31;74.48
76847;BME280;65813;49.546;8.644;2023-04-23T07:59:42;99963.63;;;14.32;73.89
76847;BME280;65813;49.546;8.644;2023-04-23T08:03:43;99966.72;;;14.46;73.75
76847;BME280;65813;49.546;8.644;2023-04-23T08:07:43;99960.31;;;14.57;72.67
76847;BME280;65813;49.546;8.644;2023-04-23T08:11:43;99957.75;;;14.65;72.52
76847;BME280;65813;49.546;8.644;2023-04-23T08:15:44;99957.16;;;14.71;72.80
76847;BME280;65813;49.546;8.644;2023-04-23T08:19:44;99944.59;;;14.44;72.96
76847;BME280;65813;49.546;8.644;2023-04-23T08:23:44;99955.25;;;14.54;72.32
76847;BME280;65813;49.546;8.644;2023-04-23T08:27:45;99943.13;;;14.77;72.50
76847;BME280;65813;49.546;8.644;2023-04-23T08:31:46;99947.50;;;14.78;71.33
76847;BME280;65813;49.546;8.644;2023-04-23T08:35:46;99940.44;;;14.77;69.60
76847;BME280;65813;49.546;8.644;2023-04-23T08:39:46;99937.09;;;14.75;70.92
76847;BME280;65813;49.546;8.644;2023-04-23T08:43:53;99932.41;;;14.77;71.00
76847;BME280;65813;49.546;8.644;2023-04-23T08:48:00;99936.25;;;14.47;70.51
76847;BME280;65813;49.546;8.644;2023-04-23T08:52:16;99933.06;;;14.61;71.38
76847;BME280;65813;49.546;8.644;2023-04-23T08:56:18;99941.53;;;14.84;71.53
76847;BME280;65813;49.546;8.644;2023-04-23T09:00:20;99923.38;;;15.13;68.62
76847;BME280;65813;49.546;8.644;2023-04-23T09:04:22;99920.72;;;15.49;64.47
76847;BME280;65813;49.546;8.644;2023-04-23T09:08:25;99924.56;;;15.64;63.02
76847;BME280;65813;49.546;8.644;2023-04-23T09:12:25;99919.03;;;15.91;63.58
76847;BME280;65813;49.546;8.644;2023-04-23T09:16:26;99916.66;;;16.14;62.25
76847;BME280;65813;49.546;8.644;2023-04-23T09:20:26;99906.94;;;16.55;61.46
76847;BME280;65813;49.546;8.644;2023-04-23T09:24:27;99903.34;;;16.80;61.20
76847;BME280;65813;49.546;8.644;2023-04-23T09:28:34;99906.47;;;16.59;58.97
76847;BME280;65813;49.546;8.644;2023-04-23T09:32:42;99889.56;;;16.83;59.17
76847;BME280;65813;49.546;8.644;2023-04-23T09:36:46;99887.28;;;17.29;57.09
76847;BME280;65813;49.546;8.644;2023-04-23T09:40:49;99885.75;;;17.18;58.33
76847;BME280;65813;49.546;8.644;2023-04-23T09:44:58;99876.50;;;17.04;58.12
76847;BME280;65813;49.546;8.644;2023-04-23T09:49:01;99871.75;;;16.90;57.35
76847;BME280;65813;49.546;8.644;2023-04-23T09:53:02;99873.06;;;16.70;58.17
76847;BME280;65813;49.546;8.644;2023-04-23T09:57:04;99860.88;;;16.50;57.45
76847;BME280;65813;49.546;8.644;2023-04-23T10:01:08;99876.31;;;16.82;58.63
76847;BME280;65813;49.546;8.644;2023-04-23T10:05:19;99861.97;;;16.73;57.76
76847;BME280;65813;49.546;8.644;2023-04-23T10:09:20;99861.66;;;16.84;56.69
76847;BME280;65813;49.546;8.644;2023-04-23T10:13:24;99853.22;;;16.79;57.84
76847;BME280;65813;49.546;8.644;2023-04-23T10:17:26;99857.47;;;16.90;57.60
76847;BME280;65813;49.546;8.644;2023-04-23T10:21:28;99848.56;;;16.97;56.35
76847;BME280;65813;49.546;8.644;2023-04-23T10:25:31;99838.16;;;17.02;57.34
76847;BME280;65813;49.546;8.644;2023-04-23T10:29:33;99847.75;;;17.13;56.10
76847;BME280;65813;49.546;8.644;2023-04-23T10:33:34;99839.00;;;17.03;56.72
76847;BME280;65813;49.546;8.644;2023-04-23T10:37:35;99835.44;;;17.10;57.18
76847;BME280;65813;49.546;8.644;2023-04-23T10:41:38;99831.38;;;17.55;57.06
76847;BME280;65813;49.546;8.644;2023-04-23T10:45:40;99822.69;;;17.12;54.34
76847;BME280;65813;49.546;8.644;2023-04-23T10:49:41;99813.75;;;17.36;55.73
76847;BME280;65813;49.546;8.644;2023-04-23T10:53:42;99800.78;;;17.56;53.66
76847;BME280;65813;49.546;8.644;2023-04-23T11:02:07;99796.22;;;18.11;53.95
76847;BME280;65813;49.546;8.644;2023-04-23T11:06:12;99795.19;;;18.51;51.20
76847;BME280;65813;49.546;8.644;2023-04-23T11:10:14;99782.25;;;18.39;50.49
76847;BME280;65813;49.546;8.644;2023-04-23T11:14:15;99787.78;;;18.14;51.82
76847;BME280;65813;49.546;8.644;2023-04-23T11:18:15;99784.72;;;18.48;52.15
76847;BME280;65813;49.546;8.644;2023-04-23T11:22:15;99774.25;;;17.92;50.87
76847;BME280;65813;49.546;8.644;2023-04-23T11:26:20;99771.19;;;17.95;52.51
76847;BME280;65813;49.546;8.644;2023-04-23T11:30:24;99762.91;;;18.04;52.72
76847;BME280;65813;49.546;8.644;2023-04-23T11:34:24;99749.91;;;18.08;51.51
76847;BME280;65813;49.546;8.644;2023-04-23T11:38:30;99744.06;;;17.96;52.50
76847;BME280;65813;49.546;8.644;2023-04-23T11:42:40;99745.47;;;18.23;49.78
76847;BME280;65813;49.546;8.644;2023-04-23T11:46:42;99744.38;;;18.86;49.90
76847;BME280;65813;49.546;8.644;2023-04-23T11:50:42;99739.19;;;18.99;48.62
76847;BME280;65813;49.546;8.644;2023-04-23T11:54:42;99730.78;;;18.94;45.70
76847;BME280;65813;49.546;8.644;2023-04-23T11:58:43;99730.78;;;19.16;47.94
76847;BME280;65813;49.546;8.644;2023-04-23T12:02:54;99723.69;;;18.78;46.29
76847;BME280;65813;49.546;8.644;2023-04-23T12:06:56;99704.81;;;18.78;45.03
76847;BME280;65813;49.546;8.644;2023-04-23T12:11:03;99699.66;;;19.21;46.42
76847;BME280;65813;49.546;8.644;2023-04-23T12:15:05;99684.69;;;19.33;43.30
76847;BME280;65813;49.546;8.644;2023-04-23T12:19:16;99686.94;;;18.54;43.08
76847;BME280;65813;49.546;8.644;2023-04-23T12:23:18;99662.59;;;19.14;42.01
76847;BME280;65813;49.546;8.644;2023-04-23T12:27:19;99667.28;;;19.50;42.11
76847;BME280;65813;49.546;8.644;2023-04-23T12:31:23;99659.34;;;19.78;42.64
76847;BME280;65813;49.546;8.644;2023-04-23T12:35:59;99658.75;;;18.94;42.55
76847;BME280;65813;49.546;8.644;2023-04-23T12:39:59;99649.13;;;18.77;44.67
76847;BME280;65813;49.546;8.644;2023-04-23T12:44:00;99645.38;;;19.15;42.64
76847;BME280;65813;49.546;8.644;2023-04-23T12:48:00;99642.00;;;19.28;41.98
76847;BME280;65813;49.546;8.644;2023-04-23T12:52:02;99630.84;;;19.60;42.66
76847;BME280;65813;49.546;8.644;2023-04-23T12:56:03;99626.91;;;20.35;44.05
76847;BME280;65813;49.546;8.644;2023-04-23T13:00:03;99619.84;;;19.62;41.30
76847;BME280;65813;49.546;8.644;2023-04-23T13:04:05;99635.19;;;18.88;44.27
76847;BME280;65813;49.546;8.644;2023-04-23T13:08:05;99622.31;;;18.76;43.30
76847;BME280;65813;49.546;8.644;2023-04-23T13:12:05;99609.44;;;18.86;44.00
76847;BME280;65813;49.546;8.644;2023-04-23T13:16:06;99613.22;;;18.77;43.02
76847;BME280;65813;49.546;8.644;2023-04-23T13:20:06;99607.38;;;18.28;43.52
76847;BME280;65813;49.546;8.644;2023-04-23T13:24:08;99596.03;;;18.92;45.52
76847;BME280;65813;49.546;8.644;2023-04-23T13:28:08;99601.09;;;18.35;45.61
76847;BME280;65813;49.546;8.644;2023-04-23T13:32:08;99589.47;;;18.57;44.99
76847;BME280;65813;49.546;8.644;2023-04-23T13:36:09;99574.53;;;18.47;44.22
76847;BME280;65813;49.546;8.644;2023-04-23T13:40:09;99561.09;;;18.76;45.63
76847;BME280;65813;49.546;8.644;2023-04-23T13:44:10;99546.78;;;18.61;43.91
76847;BME280;65813;49.546;8.644;2023-04-23T13:48:15;99540.69;;;18.44;46.09
76847;BME280;65813;49.546;8.644;2023-04-23T13:52:15;99549.31;;;18.40;45.37
76847;BME280;65813;49.546;8.644;2023-04-23T13:56:16;99533.56;;;18.29;45.39
76847;BME280;65813;49.546;8.644;2023-04-23T14:00:16;99531.91;;;18.65;45.22
76847;BME280;65813;49.546;8.644;2023-04-23T14:04:17;99512.53;;;18.76;45.53
76847;BME280;65813;49.546;8.644;2023-04-23T14:08:18;99515.84;;;19.07;44.43
76847;BME280;65813;49.546;8.644;2023-04-23T14:12:18;99504.34;;;18.99;44.05
76847;BME280;65813;49.546;8.644;2023-04-23T14:16:19;99488.09;;;19.13;44.17
76847;BME280;65813;49.546;8.644;2023-04-23T14:20:19;99480.81;;;19.29;43.28
76847;BME280;65813;49.546;8.644;2023-04-23T14:24:27;99476.41;;;19.06;43.49
76847;BME280;65813;49.546;8.644;2023-04-23T14:28:33;99463.38;;;19.31;43.92
76847;BME280;65813;49.546;8.644;2023-04-23T14:32:37;99445.19;;;19.40;43.22
76847;BME280;65813;49.546;8.644;2023-04-23T14:36:37;99455.53;;;19.36;41.67
76847;BME280;65813;49.546;8.644;2023-04-23T14:40:39;99455.00;;;19.26;43.10
76847;BME280;65813;49.546;8.644;2023-04-23T14:44:39;99437.84;;;19.12;44.75
76847;BME280;65813;49.546;8.644;2023-04-23T14:48:40;99434.75;;;19.15;42.81
76847;BME280;65813;49.546;8.644;2023-04-23T14:52:40;99433.84;;;19.08;43.34
76847;BME280;65813;49.546;8.644;2023-04-23T14:56:42;99431.31;;;19.07;44.20
76847;BME280;65813;49.546;8.644;2023-04-23T15:00:43;99414.31;;;19.06;46.23
76847;BME280;65813;49.546;8.644;2023-04-23T15:04:44;99405.41;;;18.91;44.22
76847;BME280;65813;49.546;8.644;2023-04-23T15:08:44;99400.44;;;18.95;44.87
76847;BME280;65813;49.546;8.644;2023-04-23T15:13:07;99400.63;;;18.93;43.58
76847;BME280;65813;49.546;8.644;2023-04-23T15:17:08;99397.69;;;18.88;45.55
76847;BME280;65813;49.546;8.644;2023-04-23T15:21:08;99406.88;;;18.94;44.39
76847;BME280;65813;49.546;8.644;2023-04-23T15:25:08;99406.31;;;18.98;46.11
76847;BME280;65813;49.546;8.644;2023-04-23T15:29:09;99395.91;;;18.95;46.29
76847;BME280;65813;49.546;8.644;2023-04-23T15:33:10;99400.69;;;19.00;45.10
76847;BME280;65813;49.546;8.644;2023-04-23T15:37:10;99390.75;;;19.00;45.55
76847;BME280;65813;49.546;8.644;2023-04-23T15:41:10;99391.09;;;19.12;46.53
76847;BME280;65813;49.546;8.644;2023-04-23T15:45:11;99383.16;;;19.10;47.45
76847;BME280;65813;49.546;8.644;2023-04-23T15:49:12;99389.03;;;19.14;45.92
76847;BME280;65813;49.546;8.644;2023-04-23T15:53:12;99387.47;;;19.05;46.63
76847;BME280;65813;49.546;8.644;2023-04-23T15:57:13;99378.28;;;18.99;45.82
76847;BME280;65813;49.546;8.644;2023-04-23T16:01:14;99382.00;;;18.98;45.69
76847;BME280;65813;49.546;8.644;2023-04-23T16:05:15;99398.13;;;18.92;45.81
76847;BME280;65813;49.546;8.644;2023-04-23T16:09:15;99392.22;;;18.67;47.03
76847;BME280;65813;49.546;8.644;2023-04-23T16:13:15;99392.22;;;18.38;51.24
76847;BME280;65813;49.546;8.644;2023-04-23T16:17:16;99405.88;;;17.92;55.24
76847;BME280;65813;49.546;8.644;2023-04-23T16:21:16;99450.78;;;17.54;57.28
76847;BME280;65813;49.546;8.644;2023-04-23T16:25:16;99489.63;;;16.67;60.81
76847;BME280;65813;49.546;8.644;2023-04-23T16:29:17;99499.97;;;15.99;65.11
76847;BME280;65813;49.546;8.644;2023-04-23T16:33:17;99516.75;;;15.77;67.19
76847;BME280;65813;49.546;8.644;2023-04-23T16:37:18;99505.16;;;15.77;69.28
76847;BME280;65813;49.546;8.644;2023-04-23T16:41:19;99516.00;;;14.51;74.72
76847;BME280;65813;49.546;8.644;2023-04-23T16:45:19;99502.06;;;14.81;75.78
76847;BME280;65813;49.546;8.644;2023-04-23T16:49:21;99502.13;;;14.12;77.77
76847;BME280;65813;49.546;8.644;2023-04-23T16:53:22;99464.91;;;14.01;81.84
76847;BME280;65813;49.546;8.644;2023-04-23T16:57:22;99480.75;;;13.94;81.20
76847;BME280;65813;49.546;8.644;2023-04-23T17:01:22;99492.25;;;13.69;83.87
76847;BME280;65813;49.546;8.644;2023-04-23T17:05:23;99488.59;;;13.70;84.11
76847;BME280;65813;49.546;8.644;2023-04-23T17:09:24;99480.56;;;13.70;83.09
76847;BME280;65813;49.546;8.644;2023-04-23T17:13:24;99485.78;;;13.54;81.96
76847;BME280;65813;49.546;8.644;2023-04-23T17:17:25;99468.13;;;13.61;83.84
76847;BME280;65813;49.546;8.644;2023-04-23T17:21:25;99477.75;;;13.54;82.57
76847;BME280;65813;49.546;8.644;2023-04-23T17:25:26;99464.16;;;13.65;84.72
76847;BME280;65813;49.546;8.644;2023-04-23T17:29:27;99473.69;;;13.68;83.85
76847;BME280;65813;49.546;8.644;2023-04-23T17:33:27;99462.06;;;13.41;84.70
76847;BME280;65813;49.546;8.644;2023-04-23T17:37:27;99476.81;;;13.45;83.28
76847;BME280;65813;49.546;8.644;2023-04-23T17:41:28;99485.91;;;13.52;81.84
76847;BME280;65813;49.546;8.644;2023-04-23T17:45:28;99470.56;;;13.54;83.07
76847;BME280;65813;49.546;8.644;2023-04-23T17:49:28;99467.81;;;13.46;83.30
76847;BME280;65813;49.546;8.644;2023-04-23T17:53:29;99473.81;;;13.66;84.08
76847;BME280;65813;49.546;8.644;2023-04-23T17:57:30;99467.50;;;13.67;84.05
76847;BME280;65813;49.546;8.644;2023-04-23T18:01:30;99462.53;;;13.37;84.02
76847;BME280;65813;49.546;8.644;2023-04-23T18:05:31;99470.47;;;13.46;85.18
76847;BME280;65813;49.546;8.644;2023-04-23T18:09:31;99481.50;;;13.43;83.64
76847;BME280;65813;49.546;8.644;2023-04-23T18:13:32;99479.34;;;13.11;84.36
76847;BME280;65813;49.546;8.644;2023-04-23T18:17:32;99472.16;;;13.30;84.52
76847;BME280;65813;49.546;8.644;2023-04-23T18:21:32;99481.38;;;13.18;84.63
76847;BME280;65813;49.546;8.644;2023-04-23T18:25:33;99478.38;;;13.03;85.06
76847;BME280;65813;49.546;8.644;2023-04-23T18:29:33;99481.03;;;13.12;84.42
76847;BME280;65813;49.546;8.644;2023-04-23T18:33:46;99486.53;;;13.29;83.66
76847;BME280;65813;49.546;8.644;2023-04-23T18:37:51;99471.97;;;13.13;83.67
76847;BME280;65813;49.546;8.644;2023-04-23T18:41:52;99473.06;;;12.93;82.70
76847;BME280;65813;49.546;8.644;2023-04-23T18:45:52;99474.06;;;13.20;81.68
76847;BME280;65813;49.546;8.644;2023-04-23T18:49:55;99464.66;;;13.15;81.01
76847;BME280;65813;49.546;8.644;2023-04-23T18:53:59;99462.16;;;13.04;81.52
76847;BME280;65813;49.546;8.644;2023-04-23T18:58:00;99458.72;;;12.94;80.01
76847;BME280;65813;49.546;8.644;2023-04-23T19:02:01;99448.63;;;12.88;79.98
76847;BME280;65813;49.546;8.644;2023-04-23T19:06:02;99443.00;;;12.91;79.25
76847;BME280;65813;49.546;8.644;2023-04-23T19:10:07;99454.91;;;12.97;78.56
76847;BME280;65813;49.546;8.644;2023-04-23T19:14:07;99481.75;;;13.05;77.53
76847;BME280;65813;49.546;8.644;2023-04-23T19:18:08;99487.28;;;13.21;77.42
76847;BME280;65813;49.546;8.644;2023-04-23T19:22:08;99480.41;;;13.19;77.79
76847;BME280;65813;49.546;8.644;2023-04-23T19:26:09;99482.09;;;12.92;79.52
76847;BME280;65813;49.546;8.644;2023-04-23T19:30:09;99497.72;;;12.87;79.82
76847;BME280;65813;49.546;8.644;2023-04-23T19:34:10;99501.81;;;12.91;79.66
76847;BME280;65813;49.546;8.644;2023-04-23T19:38:12;99498.16;;;12.92;79.67
76847;BME280;65813;49.546;8.644;2023-04-23T19:42:12;99504.47;;;12.91;79.44
76847;BME280;65813;49.546;8.644;2023-04-23T19:46:13;99504.78;;;12.88;79.89
76847;BME280;65813;49.546;8.644;2023-04-23T19:50:13;99503.09;;;12.87;81.11
76847;BME280;65813;49.546;8.644;2023-04-23T19:54:13;99502.97;;;12.79;80.95
76847;BME280;65813;49.546;8.644;2023-04-23T19:58:14;99507.78;;;12.76;81.11
76847;BME280;65813;49.546;8.644;2023-04-23T20:02:15;99496.56;;;12.72;81.69
76847;BME280;65813;49.546;8.644;2023-04-23T20:06:15;99484.47;;;12.68;81.59
76847;BME280;65813;49.546;8.644;2023-04-23T20:10:16;99496.09;;;12.77;81.45
76847;BME280;65813;49.546;8.644;2023-04-23T20:14:16;99505.41;;;12.73;81.63
76847;BME280;65813;49.546;8.644;2023-04-23T20:18:17;99504.97;;;12.77;81.39
76847;BME280;65813;49.546;8.644;2023-04-23T20:22:17;99507.81;;;12.66;82.12
76847;BME280;65813;49.546;8.644;2023-04-23T20:26:19;99509.25;;;12.60;82.65
76847;BME280;65813;49.546;8.644;2023-04-23T20:30:19;99510.72;;;12.45;83.05
76847;BME280;65813;49.546;8.644;2023-04-23T20:34:19;99518.00;;;12.53;82.86
76847;BME280;65813;49.546;8.644;2023-04-23T20:38:21;99519.44;;;12.38;83.47
76847;BME280;65813;49.546;8.644;2023-04-23T20:42:22;99524.78;;;12.38;83.85
76847;BME280;65813;49.546;8.644;2023-04-23T20:46:24;99522.88;;;12.30;83.71
76847;BME280;65813;49.546;8.644;2023-04-23T20:50:25;99522.03;;;12.30;83.91
76847;BME280;65813;49.546;8.644;2023-04-23T20:54:25;99534.81;;;12.26;83.37
76847;BME280;65813;49.546;8.644;2023-04-23T20:58:25;99532.28;;;12.25;82.09
76847;BME280;65813;49.546;8.644;2023-04-23T21:02:26;99527.94;;;12.24;81.59
76847;BME280;65813;49.546;8.644;2023-04-23T21:06:26;99535.53;;;12.19;81.02
76847;BME280;65813;49.546;8.644;2023-04-23T21:10:28;99533.00;;;12.07;81.35
76847;BME280;65813;49.546;8.644;2023-04-23T21:14:28;99531.06;;;12.09;81.10
